createdAt,value
2019-02-22T00:01:13.299Z,30.12
2019-02-22T00:03:41.599Z,25.65
2019-02-22T00:06:09.892Z,28.62
2019-02-22T00:08:38.953Z,27.48
2019-02-22T00:11:07.332Z,25.90
2019-02-22T00:13:36.423Z,25.60
2019-02-22T00:16:04.745Z,29.05
2019-02-22T00:18:33.048Z,28.65
2019-02-22T00:21:01.366Z,27.00
2019-02-22T00:23:29.598Z,25.98
2019-02-22T00:25:57.917Z,28.08
2019-02-22T00:28:27.065Z,25.27
2019-02-22T00:30:55.402Z,30.10
2019-02-22T00:33:23.813Z,29.83
2019-02-22T00:35:52.144Z,30.50
2019-02-22T00:38:20.411Z,32.50
2019-02-22T00:40:49.679Z,32.85
2019-02-22T00:43:17.940Z,28.60
2019-02-22T00:45:46.233Z,29.80
2019-02-22T00:48:14.523Z,28.33
2019-02-22T00:50:42.811Z,31.00
2019-02-22T00:53:11.879Z,33.20
2019-02-22T00:55:40.204Z,29.55
2019-02-22T00:58:08.530Z,29.10
2019-02-22T01:00:36.791Z,34.33
2019-02-22T01:03:05.175Z,31.83
2019-02-22T01:05:33.467Z,28.92
2019-02-22T01:08:01.835Z,32.35
2019-02-22T01:10:31.515Z,33.75
2019-02-22T01:12:58.503Z,31.70
2019-02-22T01:15:26.954Z,33.72
2019-02-22T01:17:55.951Z,32.72
2019-02-22T01:20:24.277Z,31.50
2019-02-22T01:22:53.337Z,33.83
2019-02-22T01:25:21.677Z,33.47
2019-02-22T01:27:49.964Z,31.35
2019-02-22T01:30:18.352Z,31.50
2019-02-22T01:32:46.672Z,33.45
2019-02-22T01:35:15.004Z,32.97
2019-02-22T01:37:43.285Z,37.60
2019-02-22T01:40:11.659Z,33.15
2019-02-22T01:42:40.036Z,33.42
2019-02-22T01:45:08.351Z,40.12
2019-02-22T01:47:37.515Z,36.78
2019-02-22T01:50:05.906Z,36.73
2019-02-22T01:52:34.152Z,34.67
2019-02-22T01:55:02.444Z,34.50
2019-02-22T01:57:30.810Z,36.50
2019-02-22T01:59:59.106Z,35.90
2019-02-22T02:02:27.468Z,37.22
2019-02-22T02:04:55.754Z,38.25
2019-02-22T02:07:24.123Z,39.47
2019-02-22T02:09:52.499Z,36.50
2019-02-22T02:12:20.908Z,35.08
2019-02-22T02:14:49.775Z,34.38
2019-02-22T02:17:18.043Z,33.77
2019-02-22T02:19:46.302Z,36.47
2019-02-22T02:22:14.591Z,36.40
2019-02-22T02:24:43.055Z,35.05
2019-02-22T02:27:11.351Z,40.12
2019-02-22T02:29:39.745Z,35.55
2019-02-22T02:32:08.021Z,34.70
2019-02-22T02:34:36.386Z,35.63
2019-02-22T02:37:04.761Z,35.33
2019-02-22T02:39:33.036Z,38.50
2019-02-22T02:42:01.327Z,34.92
2019-02-22T02:44:29.685Z,32.97
2019-02-22T02:46:58.060Z,35.10
2019-02-22T02:49:26.443Z,31.67
2019-02-22T02:51:54.823Z,32.38
2019-02-22T02:54:23.212Z,31.35
2019-02-22T02:56:51.571Z,32.83
2019-02-22T02:59:19.864Z,34.80
2019-02-22T03:01:48.168Z,33.00
2019-02-22T03:04:17.315Z,29.60
2019-02-22T03:06:55.515Z,33.80
2019-02-22T03:09:23.794Z,28.80
2019-02-22T03:11:52.177Z,32.00
2019-02-22T03:14:20.616Z,31.15
2019-02-22T03:16:48.919Z,30.02
2019-02-22T03:19:17.219Z,29.98
2019-02-22T03:21:45.520Z,28.60
2019-02-22T03:24:13.815Z,26.65
2019-02-22T03:26:42.194Z,26.83
2019-02-22T03:29:10.544Z,28.35
2019-02-22T03:31:38.922Z,27.08
2019-02-22T03:34:07.281Z,28.98
2019-02-22T03:36:35.667Z,29.90
2019-02-22T03:39:03.955Z,24.75
2019-02-22T03:41:33.540Z,24.60
2019-02-22T03:44:00.575Z,28.50
2019-02-22T03:46:28.931Z,27.80
2019-02-22T03:48:57.332Z,29.00
2019-02-22T03:51:25.716Z,25.62
2019-02-22T03:53:54.026Z,26.67
2019-02-22T03:56:23.099Z,30.27
2019-02-22T03:58:51.375Z,32.10
2019-02-22T04:01:19.667Z,27.85
2019-02-22T04:03:48.719Z,29.80
2019-02-22T04:06:17.100Z,26.58
2019-02-22T04:08:45.485Z,31.45
2019-02-22T04:11:13.772Z,26.62
2019-02-22T04:13:42.057Z,26.60
2019-02-22T04:16:10.358Z,26.55
2019-02-22T04:18:39.419Z,28.70
2019-02-22T04:21:07.727Z,29.15
2019-02-22T04:23:36.800Z,27.60
2019-02-22T04:26:05.156Z,31.30
2019-02-22T04:28:33.484Z,30.52
2019-02-22T04:31:01.759Z,27.73
2019-02-22T04:33:30.054Z,30.40
2019-02-22T04:35:58.348Z,27.37
2019-02-22T04:38:26.747Z,29.37
2019-02-22T04:40:55.114Z,28.20
2019-02-22T04:43:23.449Z,30.45
2019-02-22T04:45:51.741Z,29.58
2019-02-22T04:48:20.792Z,30.33
2019-02-22T04:50:49.843Z,30.10
2019-02-22T04:53:18.115Z,31.60
2019-02-22T04:55:46.395Z,34.50
2019-02-22T04:58:14.780Z,33.70
2019-02-22T05:00:43.060Z,34.28
2019-02-22T05:03:11.432Z,32.50
2019-02-22T05:05:39.800Z,32.88
2019-02-22T05:08:08.091Z,32.65
2019-02-22T05:10:36.378Z,34.33
2019-02-22T05:13:04.740Z,35.80
2019-02-22T05:15:33.114Z,37.92
2019-02-22T05:18:01.488Z,37.72
2019-02-22T05:20:29.803Z,36.47
2019-02-22T05:23:03.710Z,35.13
2019-02-22T05:25:27.449Z,39.42
2019-02-22T05:27:55.655Z,36.63
2019-02-22T05:30:24.812Z,38.13
2019-02-22T05:32:53.105Z,38.58
2019-02-22T05:35:21.462Z,40.95
2019-02-22T05:37:49.851Z,40.97
2019-02-22T05:40:18.219Z,39.25
2019-02-22T05:42:46.535Z,42.88
2019-02-22T05:45:15.587Z,38.80
2019-02-22T05:47:43.851Z,38.70
2019-02-22T05:50:12.247Z,43.30
2019-02-22T05:52:40.541Z,41.13
2019-02-22T05:55:08.897Z,41.50
2019-02-22T05:57:37.244Z,41.35
2019-02-22T06:00:05.528Z,42.58
2019-02-22T06:02:34.218Z,39.80
2019-02-22T06:05:02.208Z,41.67
2019-02-22T06:07:30.571Z,41.95
2019-02-22T06:09:58.927Z,40.97
2019-02-22T06:12:34.554Z,41.53
2019-02-22T06:14:55.615Z,43.03
2019-02-22T06:17:23.994Z,43.10
2019-02-22T06:19:52.371Z,46.00
2019-02-22T06:22:29.045Z,40.80
2019-02-22T06:24:49.019Z,43.67
2019-02-22T06:27:17.305Z,44.60
2019-02-22T06:29:45.591Z,44.88
2019-02-22T06:32:13.951Z,42.85
2019-02-22T06:34:42.324Z,45.95
2019-02-22T06:37:10.618Z,41.42
2019-02-22T06:39:38.921Z,44.00
2019-02-22T06:42:08.071Z,43.63
2019-02-22T06:44:36.359Z,40.37
2019-02-22T06:47:04.617Z,38.03
2019-02-22T06:49:32.999Z,43.05
2019-02-22T06:52:01.376Z,38.83
2019-02-22T06:54:29.652Z,39.22
2019-02-22T06:56:57.945Z,40.67
2019-02-22T06:59:27.795Z,37.65
2019-02-22T07:01:56.715Z,42.80
2019-02-22T07:04:25.108Z,41.03
2019-02-22T07:06:54.404Z,39.38
2019-02-22T07:09:22.705Z,39.72
2019-02-22T07:11:52.783Z,39.92
2019-02-22T07:14:21.175Z,40.10
2019-02-22T07:16:49.467Z,39.10
2019-02-22T07:19:17.755Z,38.90
2019-02-22T07:21:52.434Z,38.15
2019-02-22T07:24:15.212Z,38.35
2019-02-22T07:26:43.522Z,38.08
2019-02-22T07:29:12.575Z,36.67
2019-02-22T07:31:40.979Z,37.65
2019-02-22T07:34:09.247Z,38.20
2019-02-22T07:36:37.528Z,38.90
2019-02-22T07:39:05.820Z,38.75
2019-02-22T07:41:34.863Z,37.97
2019-02-22T07:44:03.319Z,38.92
2019-02-22T07:46:31.623Z,41.95
2019-02-22T07:48:59.911Z,39.53
2019-02-22T07:51:28.203Z,39.63
2019-02-22T07:53:56.498Z,45.22
2019-02-22T07:56:25.669Z,45.78
2019-02-22T07:58:54.021Z,44.10
2019-02-22T08:01:22.411Z,40.83
2019-02-22T08:03:50.719Z,41.37
2019-02-22T08:06:19.872Z,39.40
2019-02-22T08:08:48.581Z,39.63
2019-02-22T08:11:16.523Z,41.03
2019-02-22T08:13:44.794Z,38.58
2019-02-22T08:16:13.186Z,40.95
2019-02-22T08:18:41.473Z,43.67
2019-02-22T08:21:09.895Z,42.50
2019-02-22T08:23:38.212Z,45.25
2019-02-22T08:26:06.591Z,43.53
2019-02-22T08:28:34.974Z,44.42
2019-02-22T08:31:03.180Z,40.97
2019-02-22T08:33:31.519Z,40.83
2019-02-22T08:35:59.803Z,43.30
2019-02-22T08:38:28.150Z,41.20
2019-02-22T08:40:56.510Z,41.95
2019-02-22T08:43:31.594Z,41.92
2019-02-22T08:45:53.195Z,43.55
2019-02-22T08:48:21.579Z,39.83
2019-02-22T08:50:49.950Z,42.62
2019-02-22T08:53:18.252Z,40.05
2019-02-22T08:55:46.572Z,37.72
2019-02-22T08:58:16.814Z,38.55
2019-02-22T09:00:45.102Z,36.93
2019-02-22T09:03:13.384Z,40.87
2019-02-22T09:05:41.683Z,38.20
2019-02-22T09:08:09.981Z,35.00
2019-02-22T09:10:38.328Z,37.20
2019-02-22T09:13:07.379Z,34.65
2019-02-22T09:15:35.678Z,36.67
2019-02-22T09:18:03.980Z,33.83
2019-02-22T09:20:32.308Z,35.05
2019-02-22T09:23:00.631Z,34.42
2019-02-22T09:25:28.884Z,34.77
2019-02-22T09:27:57.175Z,30.73
2019-02-22T09:30:25.539Z,30.20
2019-02-22T09:32:53.819Z,33.88
2019-02-22T09:35:22.191Z,31.52
2019-02-22T09:37:50.480Z,31.95
2019-02-22T09:40:18.790Z,34.25
2019-02-22T09:42:47.948Z,34.45
2019-02-22T09:45:16.322Z,29.12
2019-02-22T09:47:44.705Z,29.23
2019-02-22T09:50:13.906Z,30.80
2019-02-22T09:52:42.268Z,28.58
2019-02-22T09:55:10.555Z,29.27
2019-02-22T09:57:38.948Z,31.42
2019-02-22T10:00:08.183Z,28.25
2019-02-22T10:02:36.499Z,28.27
2019-02-22T10:05:04.795Z,28.77
2019-02-22T10:07:33.155Z,26.17
2019-02-22T10:10:01.410Z,28.30
2019-02-22T10:12:29.800Z,27.70
2019-02-22T10:14:58.830Z,26.62
2019-02-22T10:17:27.107Z,27.52
2019-02-22T10:19:56.159Z,25.70
2019-02-22T10:22:24.639Z,28.40
2019-02-22T10:24:52.923Z,29.85
2019-02-22T10:27:21.219Z,26.52
2019-02-22T10:29:50.287Z,27.65
2019-02-22T10:32:18.614Z,26.50
2019-02-22T10:34:47.089Z,27.92
2019-02-22T10:37:15.311Z,23.93
2019-02-22T10:39:43.567Z,26.67
2019-02-22T10:42:11.972Z,26.67
2019-02-22T10:44:40.256Z,26.25
2019-02-22T10:47:08.575Z,27.85
2019-02-22T10:49:37.619Z,24.00
2019-02-22T10:52:05.915Z,23.45
2019-02-22T10:54:34.176Z,22.87
2019-02-22T10:57:02.543Z,23.00
2019-02-22T10:59:30.923Z,23.02
2019-02-22T11:01:59.295Z,23.83
2019-02-22T11:04:27.675Z,22.08
2019-02-22T11:06:55.976Z,23.25
2019-02-22T11:09:24.271Z,23.83
2019-02-22T11:11:53.432Z,24.87
2019-02-22T11:14:28.873Z,22.43
2019-02-22T11:16:50.076Z,23.45
2019-02-22T11:19:18.375Z,21.85
2019-02-22T11:21:46.671Z,22.20
2019-02-22T11:24:15.831Z,22.27
2019-02-22T11:26:45.334Z,23.55
2019-02-22T11:29:13.631Z,20.35
2019-02-22T11:31:42.091Z,21.80
2019-02-22T11:34:10.309Z,19.33
2019-02-22T11:36:38.643Z,20.35
2019-02-22T11:39:06.947Z,22.42
2019-02-22T11:41:36.012Z,19.27
2019-02-22T11:44:04.311Z,22.55
2019-02-22T11:46:32.656Z,21.77
2019-02-22T11:49:00.911Z,21.12
2019-02-22T11:51:29.823Z,22.60
2019-02-22T11:53:58.207Z,18.70
2019-02-22T11:56:26.587Z,22.40
2019-02-22T11:58:54.900Z,23.55
2019-02-22T12:01:23.340Z,21.47
2019-02-22T12:03:51.758Z,22.93
2019-02-22T12:06:20.012Z,22.33
2019-02-22T12:08:48.315Z,22.33
2019-02-22T12:11:17.203Z,24.08
2019-02-22T12:13:46.072Z,22.70
2019-02-22T12:16:14.494Z,22.13
2019-02-22T12:18:42.790Z,20.83
2019-02-22T12:21:11.088Z,21.70
2019-02-22T12:23:39.436Z,18.45
2019-02-22T12:26:08.423Z,20.40
2019-02-22T12:28:36.719Z,19.67
2019-02-22T12:31:05.003Z,19.20
2019-02-22T12:33:33.368Z,17.77
2019-02-22T12:36:01.658Z,19.58
2019-02-22T12:38:30.046Z,21.92
2019-02-22T12:40:59.126Z,20.42
2019-02-22T12:43:27.507Z,18.30
2019-02-22T12:45:55.921Z,19.73
2019-02-22T12:48:24.168Z,17.33
2019-02-22T12:50:53.103Z,19.40
2019-02-22T12:53:21.688Z,18.20
2019-02-22T12:55:50.014Z,19.10
2019-02-22T12:58:18.311Z,19.40
2019-02-22T13:00:47.382Z,20.60
2019-02-22T13:03:15.687Z,19.35
2019-02-22T13:05:44.739Z,18.90
2019-02-22T13:08:13.053Z,17.12
2019-02-22T13:10:42.114Z,15.93
2019-02-22T13:13:10.454Z,15.85
2019-02-22T13:15:38.825Z,16.00
2019-02-22T13:18:07.107Z,15.68
2019-02-22T13:20:35.540Z,15.32
2019-02-22T13:23:03.931Z,17.52
2019-02-22T13:25:32.627Z,16.92
2019-02-22T13:28:01.708Z,18.80
2019-02-22T13:30:30.065Z,14.10
2019-02-22T13:32:59.244Z,16.15
2019-02-22T13:35:27.556Z,14.57
2019-02-22T13:37:56.650Z,13.75
2019-02-22T13:40:25.003Z,12.75
2019-02-22T13:42:53.279Z,16.30
2019-02-22T13:45:26.626Z,14.70
2019-02-22T13:47:50.723Z,16.77
2019-02-22T13:50:19.009Z,17.08
2019-02-22T13:52:47.392Z,16.73
2019-02-22T13:55:15.789Z,16.70
2019-02-22T13:57:44.159Z,15.52
2019-02-22T14:00:13.391Z,14.35
2019-02-22T14:02:42.447Z,15.90
2019-02-22T14:05:10.819Z,14.52
2019-02-22T14:07:39.200Z,14.77
2019-02-22T14:10:07.572Z,14.80
2019-02-22T14:12:35.871Z,15.27
2019-02-22T14:15:05.039Z,14.85
2019-02-22T14:17:33.315Z,15.10
2019-02-22T14:20:01.695Z,12.20
2019-02-22T14:22:29.996Z,13.23
2019-02-22T14:24:58.347Z,13.43
2019-02-22T14:27:26.642Z,14.73
2019-02-22T14:29:54.941Z,14.13
2019-02-22T14:32:23.995Z,14.27
2019-02-22T14:34:52.414Z,14.73
2019-02-22T14:37:20.758Z,15.52
2019-02-22T14:39:57.689Z,13.77
2019-02-22T14:42:17.423Z,15.93
2019-02-22T14:44:45.779Z,12.80
2019-02-22T14:47:14.067Z,12.93
2019-02-22T14:49:42.448Z,13.68
2019-02-22T14:52:12.781Z,12.77
2019-02-22T14:54:39.903Z,12.05
2019-02-22T14:57:08.282Z,13.00
2019-02-22T14:59:36.616Z,12.88
2019-02-22T15:02:04.918Z,13.18
2019-02-22T15:04:33.314Z,12.45
2019-02-22T15:07:01.698Z,12.85
2019-02-22T15:09:30.004Z,13.18
2019-02-22T15:11:59.105Z,13.50
2019-02-22T15:14:28.236Z,13.88
2019-02-22T15:17:03.339Z,14.18
2019-02-22T15:19:32.401Z,12.37
2019-02-22T15:22:01.258Z,13.23
2019-02-22T15:24:29.035Z,12.65
2019-02-22T15:26:57.419Z,14.05
2019-02-22T15:29:25.799Z,12.95
2019-02-22T15:31:54.076Z,11.95
2019-02-22T15:34:22.358Z,13.35
2019-02-22T15:36:52.240Z,12.57
2019-02-22T15:39:20.577Z,14.48
2019-02-22T15:41:49.739Z,12.60
2019-02-22T15:44:18.122Z,13.52
2019-02-22T15:46:46.502Z,13.98
2019-02-22T15:49:14.907Z,13.85
2019-02-22T15:51:43.192Z,13.68
2019-02-22T15:54:11.456Z,13.67
2019-02-22T15:56:40.835Z,11.93
2019-02-22T15:59:09.094Z,13.00
2019-02-22T16:01:37.407Z,14.15
2019-02-22T16:04:06.463Z,11.12
2019-02-22T16:06:34.843Z,13.18
2019-02-22T16:09:03.092Z,11.60
2019-02-22T16:11:31.376Z,10.57
2019-02-22T16:13:59.664Z,11.18
2019-02-22T16:16:27.953Z,7.10
2019-02-22T16:18:56.223Z,7.47
2019-02-22T16:21:24.605Z,6.35
2019-02-22T16:23:52.880Z,5.68
2019-02-22T16:26:21.983Z,6.50
2019-02-22T16:28:50.443Z,7.05
2019-02-22T16:31:18.718Z,9.05
2019-02-22T16:33:46.987Z,5.80
2019-02-22T16:36:15.374Z,7.40
2019-02-22T16:38:43.739Z,7.03
2019-02-22T16:41:12.076Z,6.12
2019-02-22T16:43:41.125Z,6.75
2019-02-22T16:46:09.379Z,7.55
2019-02-22T16:48:37.666Z,10.60
2019-02-22T16:51:06.135Z,7.45
2019-02-22T16:53:34.635Z,9.35
2019-02-22T16:56:02.911Z,9.98
2019-02-22T16:58:31.188Z,9.00
2019-02-22T17:00:59.463Z,8.38
2019-02-22T17:03:27.862Z,9.45
2019-02-22T17:05:56.308Z,7.72
2019-02-22T17:08:24.580Z,8.80
2019-02-22T17:10:52.968Z,8.05
2019-02-22T17:13:21.363Z,7.97
2019-02-22T17:15:49.734Z,6.72
2019-02-22T17:18:18.026Z,8.07
2019-02-22T17:20:46.293Z,8.43
2019-02-22T17:23:14.743Z,7.87
2019-02-22T17:25:42.995Z,7.77
2019-02-22T17:28:11.291Z,8.15
2019-02-22T17:30:39.607Z,8.05
2019-02-22T17:33:07.898Z,11.00
2019-02-22T17:35:36.943Z,8.57
2019-02-22T17:38:05.326Z,8.07
2019-02-22T17:40:33.607Z,8.25
2019-02-22T17:43:01.951Z,9.00
2019-02-22T17:45:30.246Z,9.60
2019-02-22T17:47:58.530Z,8.57
2019-02-22T17:50:26.899Z,8.23
2019-02-22T17:52:55.288Z,16.55
2019-02-22T17:55:23.579Z,16.12
2019-02-22T17:57:51.932Z,15.93
2019-02-22T18:00:20.225Z,14.07
2019-02-22T18:02:48.595Z,15.85
2019-02-22T18:05:16.892Z,15.48
2019-02-22T18:07:45.252Z,12.07
2019-02-22T18:10:13.554Z,12.80
2019-02-22T18:12:41.899Z,13.90
2019-02-22T18:15:13.627Z,13.33
2019-02-22T18:17:41.984Z,17.42
2019-02-22T18:20:11.040Z,15.38
2019-02-22T18:22:39.347Z,14.85
2019-02-22T18:25:08.374Z,16.70
2019-02-22T18:27:36.678Z,14.48
2019-02-22T18:30:04.959Z,16.58
2019-02-22T18:32:33.251Z,17.48
2019-02-22T18:35:02.303Z,14.60
2019-02-22T18:37:30.684Z,15.07
2019-02-22T18:39:58.974Z,14.18
2019-02-22T18:42:27.339Z,11.88
2019-02-22T18:44:55.627Z,10.88
2019-02-22T18:47:23.903Z,12.15
2019-02-22T18:49:52.186Z,10.90
2019-02-22T18:52:20.547Z,12.40
2019-02-22T18:54:48.894Z,10.60
2019-02-22T18:57:17.203Z,12.65
2019-02-22T18:59:45.571Z,12.57
2019-02-22T19:02:13.948Z,9.15
2019-02-22T19:04:42.338Z,11.20
2019-02-22T19:07:10.635Z,11.05
2019-02-22T19:09:39.295Z,11.57
2019-02-22T19:12:07.572Z,10.80
2019-02-22T19:14:35.940Z,11.43
2019-02-22T19:17:04.230Z,12.75
2019-02-22T19:19:32.515Z,10.50
2019-02-22T19:22:00.787Z,12.25
2019-02-22T19:24:29.110Z,11.25
2019-02-22T19:26:57.398Z,11.05
2019-02-22T19:29:25.676Z,8.48
2019-02-22T19:31:53.969Z,8.47
2019-02-22T19:34:22.259Z,9.60
2019-02-22T19:36:50.541Z,9.73
2019-02-22T19:39:18.794Z,8.27
2019-02-22T19:41:47.172Z,7.93
2019-02-22T19:44:15.466Z,7.78
2019-02-22T19:46:43.827Z,7.80
2019-02-22T19:49:12.099Z,6.20
2019-02-22T19:51:40.547Z,20.40
2019-02-22T19:54:08.859Z,15.35
2019-02-22T19:56:37.399Z,16.25
2019-02-22T19:59:06.532Z,10.52
2019-02-22T20:01:34.932Z,7.93
2019-02-22T20:04:03.288Z,8.65
2019-02-22T20:06:31.575Z,6.70
2019-02-22T20:08:59.843Z,7.18
2019-02-22T20:11:28.130Z,10.32
2019-02-22T20:13:56.411Z,6.93
2019-02-22T20:16:24.812Z,6.15
2019-02-22T20:18:53.083Z,7.82
2019-02-22T20:21:21.336Z,8.47
2019-02-22T20:23:49.695Z,6.43
2019-02-22T20:26:18.136Z,6.70
2019-02-22T20:28:46.462Z,8.43
2019-02-22T20:31:20.387Z,7.20
2019-02-22T20:33:43.821Z,7.72
2019-02-22T20:36:12.153Z,6.25
2019-02-22T20:38:41.295Z,8.48
2019-02-22T20:41:09.594Z,7.95
2019-02-22T20:43:37.946Z,8.45
2019-02-22T20:46:08.071Z,12.60
2019-02-22T20:48:36.336Z,10.67
2019-02-22T20:51:04.604Z,4.25
2019-02-22T20:53:32.892Z,5.65
2019-02-22T20:56:01.154Z,5.37
2019-02-22T20:58:30.013Z,6.37
2019-02-22T21:00:59.048Z,4.93
2019-02-22T21:03:27.371Z,5.35
2019-02-22T21:05:55.702Z,5.70
2019-02-22T21:08:24.791Z,5.60
2019-02-22T21:10:52.471Z,4.80
2019-02-22T21:13:20.803Z,5.15
2019-02-22T21:15:49.090Z,4.90
2019-02-22T21:18:17.392Z,4.70
2019-02-22T21:20:45.668Z,6.07
2019-02-22T21:23:13.951Z,5.70
2019-02-22T21:25:42.252Z,4.37
2019-02-22T21:28:10.595Z,4.22
2019-02-22T21:30:38.858Z,4.95
2019-02-22T21:33:07.248Z,4.53
2019-02-22T21:35:35.726Z,4.18
2019-02-22T21:38:04.811Z,4.55
2019-02-22T21:40:33.092Z,4.45
2019-02-22T21:43:01.465Z,5.53
2019-02-22T21:45:29.728Z,4.07
2019-02-22T21:47:58.006Z,6.30
2019-02-22T21:50:26.844Z,4.65
2019-02-22T21:52:55.184Z,4.40
2019-02-22T21:55:23.471Z,5.57
2019-02-22T21:57:51.750Z,5.05
2019-02-22T22:00:20.115Z,5.65
2019-02-22T22:02:48.393Z,4.95
2019-02-22T22:05:16.660Z,5.53
2019-02-22T22:07:44.934Z,5.20
2019-02-22T22:10:13.214Z,5.53
2019-02-22T22:12:41.481Z,5.72
2019-02-22T22:15:10.721Z,7.95
2019-02-22T22:17:38.067Z,6.20
2019-02-22T22:20:06.335Z,6.10
2019-02-22T22:22:34.622Z,6.45
2019-02-22T22:25:02.902Z,7.60
2019-02-22T22:27:31.254Z,10.20
2019-02-22T22:29:59.635Z,9.48
2019-02-22T22:32:27.956Z,10.32
2019-02-22T22:34:56.282Z,10.30
2019-02-22T22:37:24.610Z,10.10
2019-02-22T22:39:52.907Z,10.48
2019-02-22T22:42:21.196Z,10.40
2019-02-22T22:44:49.491Z,10.65
2019-02-22T22:47:17.779Z,10.15
2019-02-22T22:49:46.067Z,9.98
2019-02-22T22:52:14.416Z,9.70
2019-02-22T22:54:42.707Z,9.68
2019-02-22T22:57:10.975Z,9.70
2019-02-22T22:59:39.323Z,8.82
2019-02-22T23:02:07.611Z,9.20
2019-02-22T23:04:35.886Z,8.60
2019-02-22T23:07:04.140Z,8.50
2019-02-22T23:09:33.159Z,8.63
2019-02-22T23:12:01.472Z,8.05
2019-02-22T23:14:30.511Z,8.55
2019-02-22T23:16:58.896Z,7.95
2019-02-22T23:19:27.172Z,8.32
2019-02-22T23:21:55.570Z,8.88
2019-02-22T23:24:23.919Z,9.68
2019-02-22T23:26:52.207Z,8.45
2019-02-22T23:29:20.487Z,8.13
2019-02-22T23:31:48.851Z,7.95
2019-02-22T23:34:17.230Z,8.13
2019-02-22T23:36:45.519Z,7.97
2019-02-22T23:39:13.823Z,7.93
2019-02-22T23:41:42.170Z,7.62
2019-02-22T23:44:10.539Z,7.37
2019-02-22T23:46:38.821Z,7.32
2019-02-22T23:49:13.221Z,7.62
2019-02-22T23:51:35.372Z,7.18
2019-02-22T23:54:03.642Z,7.60
2019-02-22T23:56:32.023Z,7.85
2019-02-22T23:59:00.289Z,8.07
